Time;durP1;ratioP1;P1;durP2;ratioP2;P2;SDS_P1;SDS_P2;PMS_P1;PMS_P2;Temp;Humidity;BMP_temperature;BMP_pressure;BME280_temperature;BME280_humidity;BME280_pressure;Samples;Min_cycle;Max_cycle;Signal;HPM_P1;HPM_P2
2022/01/06 00:01:37;;;;;;;6.65;2.45;;;;;;;3.09;71.03;96300.22;4937968;29;20047;-76
2022/01/06 00:04:04;;;;;;;6.05;2.70;;;;;;;3.07;70.09;96297.78;4938261;29;20673;-76
2022/01/06 00:06:37;;;;;;;7.03;2.60;;;;;;;3.08;71.40;96296.00;4937493;29;20055;-76
2022/01/06 00:09:06;;;;;;;8.57;3.22;;;;;;;3.09;71.87;96303.59;4937590;29;20125;-76
2022/01/06 00:11:35;;;;;;;5.78;2.50;;;;;;;3.11;70.79;96308.63;4937278;29;20056;-76
2022/01/06 00:14:08;;;;;;;6.93;2.53;;;;;;;3.09;70.58;96305.38;4937330;29;20051;-76
2022/01/06 00:16:43;;;;;;;5.20;2.47;;;;;;;3.06;70.79;96310.81;4937106;29;20048;-76
2022/01/06 00:24:41;;;;;;;7.97;2.88;;;;;;;3.08;72.00;96314.06;4938013;29;20051;-75
2022/01/06 00:27:10;;;;;;;6.82;2.45;;;;;;;3.06;70.92;96315.94;4938036;29;20062;-76
2022/01/06 00:29:37;;;;;;;4.82;2.10;;;;;;;3.08;71.60;96321.78;4959781;29;20049;-76
2022/01/06 00:32:06;;;;;;;6.00;3.22;;;;;;;3.12;71.80;96320.53;4959039;29;20055;-76
2022/01/06 00:34:34;;;;;;;7.32;2.95;;;;;;;3.13;72.00;96314.47;4959138;29;20086;-76
2022/01/06 00:37:02;;;;;;;5.45;3.15;;;;;;;3.12;72.71;96320.53;4958898;29;20051;-76
2022/01/06 00:39:30;;;;;;;7.00;3.15;;;;;;;3.15;73.14;96328.00;4958960;29;20051;-76
2022/01/06 00:42:00;;;;;;;7.43;2.83;;;;;;;3.16;73.15;96315.94;4958706;29;20066;-76
2022/01/06 00:44:29;;;;;;;8.02;3.30;;;;;;;3.17;73.33;96323.53;4958500;29;20055;-76
2022/01/06 00:46:56;;;;;;;9.90;2.38;;;;;;;3.16;72.54;96319.31;4957768;29;20060;-76
2022/01/06 00:49:24;;;;;;;6.35;2.63;;;;;;;3.16;71.98;96316.72;4946644;29;20052;-76
2022/01/06 00:51:51;;;;;;;6.45;3.55;;;;;;;3.13;70.71;96319.59;4939043;29;20047;-76
2022/01/06 00:54:19;;;;;;;7.47;3.35;;;;;;;3.11;72.03;96326.66;4937969;29;20059;-76
2022/01/06 00:56:46;;;;;;;10.13;3.15;;;;;;;3.12;72.19;96332.63;4937442;29;20066;-76
2022/01/06 00:59:13;;;;;;;5.38;2.80;;;;;;;3.12;72.29;96323.13;4937350;29;20059;-76
2022/01/06 01:01:43;;;;;;;8.43;2.60;;;;;;;3.12;73.20;96324.91;4937330;29;20048;-76
2022/01/06 01:04:10;;;;;;;10.40;2.72;;;;;;;3.14;72.68;96331.53;4937410;29;20426;-77
2022/01/06 01:06:38;;;;;;;9.40;2.95;;;;;;;3.13;71.71;96334.25;4936872;29;20056;-76
2022/01/06 01:09:06;;;;;;;9.13;3.05;;;;;;;3.10;72.10;96335.34;4937116;29;20051;-76
2022/01/06 01:11:33;;;;;;;9.05;2.80;;;;;;;3.08;72.76;96343.22;4937328;29;20063;-75
2022/01/06 01:14:16;;;;;;;9.25;3.80;;;;;;;3.09;73.51;96338.88;4941684;29;20043;-76
2022/01/06 01:16:54;;;;;;;4.55;2.38;;;;;;;3.12;74.39;96348.91;4956141;29;20036;-76
2022/01/06 01:19:21;;;;;;;8.15;2.97;;;;;;;3.15;72.82;96348.63;4957815;29;20058;-79
2022/01/06 01:21:49;;;;;;;7.43;3.55;;;;;;;3.14;73.05;96341.84;4958288;29;20040;-79
2022/01/06 01:24:17;;;;;;;8.57;3.10;;;;;;;3.15;73.65;96345.22;4956686;29;20040;-79
2022/01/06 01:26:44;;;;;;;7.18;3.13;;;;;;;3.17;73.75;96348.47;4956018;29;20053;-80
2022/01/06 01:29:16;;;;;;;8.93;3.15;;;;;;;3.17;73.80;96349.31;4953028;29;20052;-78
2022/01/06 01:31:49;;;;;;;8.27;2.80;;;;;;;3.18;73.09;96358.66;4936871;29;20040;-77
2022/01/06 01:34:21;;;;;;;6.35;2.90;;;;;;;3.14;72.51;96370.19;4935531;29;20074;-77
2022/01/06 01:36:49;;;;;;;;;;;;;;;3.12;73.28;96364.34;4934704;29;20047;-77
2022/01/06 01:39:17;;;;;;;7.20;2.92;;;;;;;3.10;73.21;96371.41;4935968;29;19934;-76
2022/01/06 01:41:45;;;;;;;6.93;3.67;;;;;;;3.08;73.46;96357.84;4935486;29;20055;-77
2022/01/06 01:44:15;;;;;;;10.45;3.53;;;;;;;3.05;72.83;96368.47;4934008;29;20067;-77
2022/01/06 01:46:45;;;;;;;11.77;2.70;;;;;;;3.03;73.22;96365.22;4933308;29;20059;-77
2022/01/06 01:49:29;;;;;;;7.25;3.58;;;;;;;3.06;74.10;96370.06;4934287;29;20051;-77
2022/01/06 01:51:57;;;;;;;8.00;3.03;;;;;;;3.08;73.49;96379.31;4933882;29;20048;-77
2022/01/06 01:54:25;;;;;;;9.27;3.78;;;;;;;3.05;74.15;96371.03;4933891;29;20141;-79
2022/01/06 01:56:52;;;;;;;6.10;3.65;;;;;;;3.09;74.28;96377.53;4934171;29;20055;-77
2022/01/06 01:59:20;;;;;;;6.80;3.60;;;;;;;3.08;73.61;96378.47;4935556;29;20529;-76
2022/01/06 02:01:47;;;;;;;7.75;3.60;;;;;;;3.07;74.85;96387.16;4971797;23;20425;-81
2022/01/06 02:04:16;;;;;;;6.68;3.28;;;;;;;3.09;75.52;96386.06;4957380;28;20051;-81
2022/01/06 02:06:44;;;;;;;7.60;3.45;;;;;;;3.11;75.29;96382.56;4957660;28;20434;-80
2022/01/06 02:09:11;;;;;;;9.88;3.80;;;;;;;3.03;74.41;96372.94;4957839;28;20043;-80
2022/01/06 02:11:39;;;;;;;6.22;3.08;;;;;;;3.03;74.45;96375.50;4942213;29;20067;-79
2022/01/06 02:14:07;;;;;;;6.30;3.70;;;;;;;3.03;75.29;96372.94;4936265;29;20052;-78
2022/01/06 02:16:34;;;;;;;7.10;3.45;;;;;;;3.07;75.72;96384.59;4938040;29;20055;-80
2022/01/06 02:19:02;;;;;;;7.57;4.00;;;;;;;3.10;75.29;96386.88;4938044;29;20048;-80
2022/01/06 02:21:31;;;;;;;12.75;3.97;;;;;;;3.12;75.30;96395.28;4937539;29;20097;-80
2022/01/06 02:23:59;;;;;;;7.10;3.10;;;;;;;3.16;75.40;96396.63;4936229;29;20453;-77
2022/01/06 02:26:26;;;;;;;6.90;4.25;;;;;;;3.18;75.11;96404.25;4935527;29;20047;-78
2022/01/06 02:28:54;;;;;;;7.85;4.10;;;;;;;3.19;75.77;96406.69;4935711;29;20052;-79
2022/01/06 02:31:21;;;;;;;5.30;3.90;;;;;;;3.23;76.00;96413.16;4935760;29;20051;-78
2022/01/06 02:33:49;;;;;;;10.07;4.50;;;;;;;3.24;75.69;96412.22;4936180;29;20063;-79
2022/01/06 02:36:17;;;;;;;8.48;3.40;;;;;;;3.21;75.63;96404.75;4935805;29;20083;-78
2022/01/06 02:38:45;;;;;;;7.43;3.85;;;;;;;3.20;75.50;96417.78;4939952;29;20055;-78
2022/01/06 02:41:13;;;;;;;7.80;3.78;;;;;;;3.20;75.02;96416.03;4939925;29;20517;-78
2022/01/06 02:43:41;;;;;;;10.48;4.57;;;;;;;3.18;75.46;96415.34;4940826;29;20051;-80
2022/01/06 02:46:09;;;;;;;5.78;3.03;;;;;;;3.15;75.49;96405.34;4943567;29;20119;-79
2022/01/06 02:48:37;;;;;;;4.93;3.50;;;;;;;3.15;75.81;96410.50;4942572;29;20056;-81
2022/01/06 02:51:05;;;;;;;7.82;4.30;;;;;;;3.15;76.63;96410.50;4941222;29;20056;-79
2022/01/06 02:53:33;;;;;;;7.63;3.38;;;;;;;3.15;76.06;96405.34;4939681;29;20048;-79
2022/01/06 02:56:01;;;;;;;5.78;3.40;;;;;;;3.16;77.00;96412.09;4939439;29;20055;-79
2022/01/06 02:58:41;;;;;;;7.35;3.28;;;;;;;3.18;76.17;96409.38;4938948;29;20501;-79
2022/01/06 03:01:09;;;;;;;5.45;3.42;;;;;;;3.19;76.50;96414.41;4938901;29;20280;-80
2022/01/06 03:03:37;;;;;;;5.22;3.20;;;;;;;3.18;76.16;96420.50;4938760;29;20085;-78
2022/01/06 03:06:04;;;;;;;3.83;3.05;;;;;;;3.15;76.34;96414.81;4938444;29;20051;-77
2022/01/06 03:08:34;;;;;;;3.80;3.00;;;;;;;3.17;76.59;96424.06;4938619;29;20051;-80
2022/01/06 03:11:02;;;;;;;6.07;3.15;;;;;;;3.20;77.12;96416.03;4938767;29;20056;-78
2022/01/06 03:13:30;;;;;;;4.38;3.58;;;;;;;3.21;76.40;96420.22;4939104;29;20047;-77
2022/01/06 03:15:57;;;;;;;5.40;3.17;;;;;;;3.20;76.18;96420.38;4938393;29;20055;-77
2022/01/06 03:18:25;;;;;;;6.78;3.20;;;;;;;3.18;75.87;96425.66;4938451;29;20420;-79
2022/01/06 03:20:53;;;;;;;6.55;3.42;;;;;;;3.14;76.00;96424.31;4938364;29;20514;-78
2022/01/06 03:23:20;;;;;;;5.63;3.30;;;;;;;3.16;76.54;96427.56;4938584;29;20430;-78
2022/01/06 03:25:48;;;;;;;6.78;2.78;;;;;;;3.15;76.17;96438.84;4938124;29;20063;-78
2022/01/06 03:28:17;;;;;;;6.20;3.78;;;;;;;3.13;76.64;96438.16;4938683;29;20055;-77
2022/01/06 03:30:45;;;;;;;4.95;3.22;;;;;;;3.13;76.07;96425.28;4938247;29;20514;-80
2022/01/06 03:33:12;;;;;;;4.82;3.35;;;;;;;3.13;76.72;96427.84;4938861;29;20391;-79
2022/01/06 03:35:40;;;;;;;5.65;3.50;;;;;;;3.15;76.91;96438.84;4938426;29;20055;-77
2022/01/06 03:38:07;;;;;;;5.18;3.35;;;;;;;3.11;76.34;96444.41;4938090;29;20048;-79
2022/01/06 03:40:35;;;;;;;7.40;3.20;;;;;;;3.09;76.98;96447.13;4938388;29;20295;-78
2022/01/06 03:43:02;;;;;;;4.25;3.35;;;;;;;3.08;77.00;96450.63;4938690;29;20058;-78
2022/01/06 03:45:32;;;;;;;5.20;2.83;;;;;;;3.09;76.53;96439.38;4938105;29;20052;-79
2022/01/06 03:48:00;;;;;;;7.60;3.38;;;;;;;3.08;76.50;96450.63;4939260;29;20052;-79
2022/01/06 03:50:28;;;;;;;5.97;4.10;;;;;;;3.08;76.51;96451.47;4939232;29;20056;-79
2022/01/06 03:52:56;;;;;;;5.30;3.38;;;;;;;3.11;77.15;96460.69;4939758;29;20059;-78
2022/01/06 03:55:23;;;;;;;5.53;2.92;;;;;;;3.16;77.01;96463.66;4940025;29;20452;-81
2022/01/06 03:57:51;;;;;;;4.13;3.72;;;;;;;3.19;77.20;96458.22;4939508;29;20052;-78
2022/01/06 04:00:21;;;;;;;5.05;3.60;;;;;;;3.18;76.78;96464.31;4937833;29;20533;-80
2022/01/06 04:02:51;;;;;;;5.88;4.00;;;;;;;3.17;77.03;96465.28;4938262;29;20055;-79
2022/01/06 04:05:19;;;;;;;7.13;4.10;;;;;;;3.18;77.15;96459.16;4938807;29;20048;-77
2022/01/06 04:07:46;;;;;;;8.88;3.97;;;;;;;3.19;76.94;96465.97;4938453;29;20357;-79
2022/01/06 04:10:14;;;;;;;5.38;3.72;;;;;;;3.15;77.08;96474.94;4947435;29;20056;-81
2022/01/06 04:12:41;;;;;;;9.35;3.83;;;;;;;3.13;77.45;96471.66;4958648;29;20035;-78
2022/01/06 04:15:13;;;;;;;5.22;3.63;;;;;;;3.11;76.86;96476.16;4958711;29;20052;-78
2022/01/06 04:17:41;;;;;;;5.13;3.40;;;;;;;3.09;77.15;96483.19;4957755;29;20086;-78
2022/01/06 04:20:12;;;;;;;8.48;3.88;;;;;;;3.09;77.08;96488.34;4942657;29;20071;-81
2022/01/06 04:22:40;;;;;;;5.50;3.83;;;;;;;3.10;77.00;96487.38;4939096;29;20051;-80
2022/01/06 04:25:08;;;;;;;5.88;3.92;;;;;;;3.12;77.75;96487.25;4938249;29;20059;-80
2022/01/06 04:27:36;;;;;;;7.20;4.70;;;;;;;3.15;77.95;96490.38;4949350;29;20076;-79
2022/01/06 04:30:06;;;;;;;5.00;3.45;;;;;;;3.17;76.86;96490.22;4959041;29;20059;-79
2022/01/06 04:32:33;;;;;;;5.43;3.80;;;;;;;3.16;77.06;96488.63;4950665;29;20052;-77
2022/01/06 04:35:01;;;;;;;6.22;3.95;;;;;;;3.15;76.60;96495.53;4938076;29;20051;-78
2022/01/06 04:37:30;;;;;;;11.88;4.75;;;;;;;3.14;76.68;96503.41;4937243;29;20051;-78
2022/01/06 04:39:58;;;;;;;7.00;4.15;;;;;;;3.16;77.18;96496.34;4937097;29;20530;-79
2022/01/06 04:42:26;;;;;;;5.38;3.85;;;;;;;3.16;77.14;96504.88;4937036;29;20052;-78
2022/01/06 04:44:54;;;;;;;5.25;3.42;;;;;;;3.15;76.75;96503.28;4937087;29;20056;-79
2022/01/06 04:47:21;;;;;;;7.07;4.07;;;;;;;3.09;76.91;96503.81;4936612;29;20059;-80
2022/01/06 04:49:49;;;;;;;6.85;4.13;;;;;;;3.10;77.65;96515.75;4936722;29;20059;-78
2022/01/06 04:52:17;;;;;;;6.25;3.95;;;;;;;3.13;77.90;96517.22;4936925;29;20060;-79
2022/01/06 04:54:46;;;;;;;8.75;3.60;;;;;;;3.13;78.08;96518.06;4937052;29;20043;-78
2022/01/06 04:57:13;;;;;;;6.82;3.85;;;;;;;3.16;78.08;96520.34;4936582;29;20079;-78
2022/01/06 04:59:41;;;;;;;6.32;3.85;;;;;;;3.18;78.03;96536.50;4936994;29;20048;-78
2022/01/06 05:02:08;;;;;;;5.25;3.83;;;;;;;3.17;78.01;96534.03;4936458;29;20059;-78
2022/01/06 05:04:36;;;;;;;5.43;3.90;;;;;;;3.18;78.19;96539.06;4937770;29;20055;-78
2022/01/06 05:07:04;;;;;;;6.28;4.03;;;;;;;3.18;77.84;96539.06;4936788;29;20514;-77
2022/01/06 05:09:32;;;;;;;5.65;4.10;;;;;;;3.17;77.20;96545.19;4936518;29;20059;-78
2022/01/06 05:12:01;;;;;;;8.38;4.35;;;;;;;3.17;76.61;96546.94;4936792;29;20052;-77
2022/01/06 05:14:28;;;;;;;5.15;3.55;;;;;;;3.16;77.45;96547.91;4936628;29;20048;-78
2022/01/06 05:16:56;;;;;;;9.60;4.03;;;;;;;3.16;77.76;96546.13;4936321;29;20051;-77
2022/01/06 05:19:24;;;;;;;5.93;3.78;;;;;;;3.19;78.59;96545.88;4936941;29;20048;-77
2022/01/06 05:21:52;;;;;;;7.00;4.05;;;;;;;3.22;78.64;96548.16;4936433;29;20058;-78
2022/01/06 05:24:22;;;;;;;6.00;4.15;;;;;;;3.18;77.54;96544.22;4936750;29;20055;-78
2022/01/06 05:26:50;;;;;;;5.38;3.67;;;;;;;3.15;78.04;96544.50;4936734;29;20052;-79
2022/01/06 05:29:19;;;;;;;7.75;4.05;;;;;;;3.18;78.86;96541.66;4937038;29;20050;-78
2022/01/06 05:31:47;;;;;;;5.80;4.13;;;;;;;3.19;78.27;96545.03;4935797;29;20095;-78
2022/01/06 05:34:15;;;;;;;6.72;4.60;;;;;;;3.17;77.93;96542.63;4936054;29;20423;-77
2022/01/06 05:36:43;;;;;;;7.43;4.18;;;;;;;3.18;77.77;96551.16;4935743;29;20422;-78
2022/01/06 05:39:10;;;;;;;5.95;3.67;;;;;;;3.17;77.69;96550.34;4936437;29;20047;-78
2022/01/06 05:41:38;;;;;;;8.07;5.03;;;;;;;3.18;78.57;96546.81;4936098;29;20056;-77
2022/01/06 05:44:06;;;;;;;7.50;4.50;;;;;;;3.20;78.69;96551.84;4936474;29;20058;-79
2022/01/06 05:46:35;;;;;;;8.07;4.07;;;;;;;3.21;78.07;96554.25;4936236;29;20079;-78
2022/01/06 05:49:02;;;;;;;6.25;4.15;;;;;;;3.22;77.94;96555.91;4936813;29;20059;-79
2022/01/06 05:51:30;;;;;;;6.25;4.55;;;;;;;3.24;78.28;96556.56;4936515;29;20059;-78
2022/01/06 05:53:58;;;;;;;10.30;5.35;;;;;;;3.29;78.55;96556.97;4936820;29;20054;-79
2022/01/06 05:56:27;;;;;;;7.00;4.72;;;;;;;3.32;78.88;96566.19;4936579;29;20051;-79
2022/01/06 05:58:54;;;;;;;7.47;4.10;;;;;;;3.35;78.86;96563.34;4936611;29;20055;-78
2022/01/06 06:01:22;;;;;;;5.22;4.38;;;;;;;3.37;78.25;96563.19;4936472;29;20123;-80
2022/01/06 06:03:52;;;;;;;13.32;5.18;;;;;;;3.36;78.49;96566.75;4936699;29;20076;-79
2022/01/06 06:06:20;;;;;;;5.25;4.03;;;;;;;3.33;77.54;96556.72;4936429;29;20059;-79
2022/01/06 06:08:47;;;;;;;10.32;4.50;;;;;;;3.32;78.24;96568.75;4936248;29;20048;-78
2022/01/06 06:11:15;;;;;;;10.35;5.63;;;;;;;3.34;78.50;96577.19;4936594;29;20052;-79
2022/01/06 06:13:42;;;;;;;6.28;4.93;;;;;;;3.37;78.63;96568.34;4944125;29;20048;-79
2022/01/06 06:16:10;;;;;;;9.98;4.53;;;;;;;3.36;77.79;96575.28;4944274;29;20449;-79
2022/01/06 06:18:37;;;;;;;6.88;4.10;;;;;;;3.37;78.44;96578.66;4944966;29;20647;-83
2022/01/06 06:21:08;;;;;;;8.10;4.65;;;;;;;3.37;78.40;96578.66;4945113;29;20055;-82
2022/01/06 06:23:36;;;;;;;6.03;4.43;;;;;;;3.39;78.61;96584.50;4944227;29;20063;-80
2022/01/06 06:26:03;;;;;;;6.13;5.03;;;;;;;3.38;78.32;96585.47;4946556;29;20052;-85
2022/01/06 06:28:31;;;;;;;7.90;4.88;;;;;;;3.35;78.65;96581.41;4947579;29;20044;-83
2022/01/06 06:30:59;;;;;;;11.20;4.35;;;;;;;3.33;78.15;96587.66;4947577;29;20052;-84
2022/01/06 06:33:26;;;;;;;5.13;4.63;;;;;;;3.32;77.71;96586.00;4947585;29;20051;-85
2022/01/06 06:35:54;;;;;;;5.70;4.03;;;;;;;3.34;78.39;96597.00;4947789;29;20052;-80
2022/01/06 06:38:23;;;;;;;5.60;4.20;;;;;;;3.35;78.63;96594.28;4946858;29;20051;-82
2022/01/06 06:40:51;;;;;;;7.70;4.93;;;;;;;3.38;79.06;96596.59;4945911;29;20059;-83
2022/01/06 06:43:19;;;;;;;10.45;4.85;;;;;;;3.42;79.45;96599.72;4945896;29;20047;-83
2022/01/06 06:45:46;;;;;;;9.88;5.50;;;;;;;3.47;79.72;96605.25;4946458;29;20082;-79
2022/01/06 06:48:14;;;;;;;8.63;4.93;;;;;;;3.53;79.87;96604.72;4947017;29;20058;-83
2022/01/06 06:50:41;;;;;;;8.43;4.57;;;;;;;3.53;78.60;96614.22;4946735;29;20055;-83
2022/01/06 06:53:09;;;;;;;7.00;4.80;;;;;;;3.49;78.40;96609.34;4946757;29;20051;-82
2022/01/06 06:55:38;;;;;;;8.43;5.32;;;;;;;3.50;78.86;96615.31;4946354;29;20052;-82
2022/01/06 06:58:06;;;;;;;5.80;4.13;;;;;;;3.51;78.06;96616.94;4944976;29;20055;-86
2022/01/06 07:00:33;;;;;;;10.10;4.78;;;;;;;3.48;77.99;96617.22;4944608;29;20111;-82
2022/01/06 07:03:01;;;;;;;13.40;4.97;;;;;;;3.49;78.30;96624.00;4945047;29;20047;-79
2022/01/06 07:05:29;;;;;;;5.40;4.20;;;;;;;3.49;78.45;96624.00;4947987;29;20090;-81
2022/01/06 07:07:57;;;;;;;7.32;4.00;;;;;;;3.49;77.82;96629.16;4946821;29;20060;-83
2022/01/06 07:10:25;;;;;;;7.03;4.65;;;;;;;3.47;77.71;96636.22;4945373;29;20044;-80
2022/01/06 07:12:54;;;;;;;11.35;5.03;;;;;;;3.46;78.33;96643.16;4945693;29;20139;-79
2022/01/06 07:15:21;;;;;;;9.55;4.82;;;;;;;3.45;77.74;96643.28;4945955;29;20075;-81
2022/01/06 07:17:49;;;;;;;9.77;5.15;;;;;;;3.42;78.16;96643.56;4941773;29;20051;-80
2022/01/06 07:20:17;;;;;;;8.80;5.10;;;;;;;3.42;78.67;96652.09;4937219;29;20131;-78
2022/01/06 07:22:44;;;;;;;6.85;4.45;;;;;;;3.43;79.36;96650.31;4942400;29;20506;-79
2022/01/06 07:25:12;;;;;;;7.50;4.75;;;;;;;3.40;79.19;96648.84;4940950;29;20518;-81
2022/01/06 07:27:39;;;;;;;8.57;5.53;;;;;;;3.42;79.02;96659.03;4942517;29;20064;-78
2022/01/06 07:30:10;;;;;;;13.43;5.95;;;;;;;3.39;79.06;96667.84;4943442;29;20055;-80
2022/01/06 07:32:45;;;;;;;11.27;5.80;;;;;;;3.41;79.76;96662.53;4942530;29;20052;-78
2022/01/06 07:35:13;;;;;;;12.65;7.15;;;;;;;3.41;79.50;96668.53;4942412;29;20458;-79
2022/01/06 07:37:41;;;;;;;8.80;4.47;;;;;;;3.42;79.46;96671.91;4941153;29;20052;-79
2022/01/06 07:40:13;;;;;;;13.13;6.70;;;;;;;3.40;79.12;96677.19;4941119;29;20122;-80
2022/01/06 07:42:41;;;;;;;8.80;6.03;;;;;;;3.37;79.47;96684.38;4941419;29;20718;-80
2022/01/06 07:45:10;;;;;;;7.55;4.80;;;;;;;3.38;79.06;96689.41;4940900;29;20059;-81
2022/01/06 07:47:54;;;;;;;8.50;5.38;;;;;;;3.36;79.34;96688.72;4940487;29;20059;-80
2022/01/06 07:50:22;;;;;;;8.55;4.93;;;;;;;3.36;78.97;96687.91;4940360;29;20541;-79
2022/01/06 07:52:49;;;;;;;9.45;4.60;;;;;;;3.34;78.21;96692.41;4942033;29;20048;-81
2022/01/06 07:55:17;;;;;;;9.25;5.15;;;;;;;3.33;78.65;96690.78;4940461;29;20077;-78
2022/01/06 07:57:44;;;;;;;11.13;5.05;;;;;;;3.33;79.02;96693.34;4940559;29;20054;-78
2022/01/06 08:00:15;;;;;;;8.70;4.55;;;;;;;3.34;79.14;96702.72;4940891;29;20063;-80
2022/01/06 08:02:42;;;;;;;9.98;4.65;;;;;;;3.35;79.00;96704.34;4942048;29;20066;-78
2022/01/06 08:05:12;;;;;;;9.27;4.82;;;;;;;3.36;78.44;96705.97;4942081;29;20556;-80
2022/01/06 08:07:40;;;;;;;7.63;4.45;;;;;;;3.34;77.83;96708.69;4941448;29;20465;-82
2022/01/06 08:10:09;;;;;;;7.05;4.43;;;;;;;3.35;78.21;96714.66;4941843;29;20052;-80
2022/01/06 08:12:37;;;;;;;7.18;4.53;;;;;;;3.37;78.73;96723.91;4942157;29;20056;-81
2022/01/06 08:15:06;;;;;;;5.80;4.43;;;;;;;3.37;77.77;96723.91;4925776;29;20059;-79
2022/01/06 08:17:36;;;;;;;8.95;4.85;;;;;;;3.35;77.88;96720.63;4920729;29;20130;-78
2022/01/06 08:20:04;;;;;;;8.25;5.00;;;;;;;3.32;78.65;96725.22;4919691;29;20358;-81
2022/01/06 08:22:32;;;;;;;7.07;4.00;;;;;;;3.33;78.42;96729.47;4920360;29;20048;-77
2022/01/06 08:25:00;;;;;;;12.90;4.85;;;;;;;3.36;78.56;96731.75;4919662;29;20056;-80
2022/01/06 08:27:27;;;;;;;7.85;5.30;;;;;;;3.41;78.80;96732.16;4919111;29;20059;-78
2022/01/06 08:29:55;;;;;;;7.70;4.70;;;;;;;3.46;78.57;96732.59;4919583;29;20510;-78
2022/01/06 08:32:22;;;;;;;7.13;5.22;;;;;;;3.51;78.52;96740.72;4919244;29;20052;-80
2022/01/06 08:34:51;;;;;;;7.10;4.43;;;;;;;3.54;78.79;96740.44;4920211;29;20466;-80
2022/01/06 08:37:19;;;;;;;6.75;3.92;;;;;;;3.57;78.03;96745.38;4920403;29;20048;-77
2022/01/06 08:39:46;;;;;;;6.80;3.60;;;;;;;3.59;77.96;96743.47;4921152;29;20068;-77
2022/01/06 08:42:14;;;;;;;4.30;3.38;;;;;;;3.64;78.37;96741.28;4922577;29;20059;-79
2022/01/06 08:44:42;;;;;;;6.95;3.53;;;;;;;3.66;76.92;96751.47;4922232;29;20056;-79
2022/01/06 08:47:11;;;;;;;5.63;3.08;;;;;;;3.66;77.34;96760.03;4917617;29;20067;-77
2022/01/06 08:49:41;;;;;;;4.63;2.80;;;;;;;3.68;77.40;96755.56;4920569;29;20420;-82
2022/01/06 08:52:10;;;;;;;5.07;2.63;;;;;;;3.71;76.97;96759.63;4923203;29;20059;-78
2022/01/06 08:54:37;;;;;;;7.55;3.08;;;;;;;3.68;76.08;96758.13;4919434;29;20048;-79
2022/01/06 08:57:05;;;;;;;5.68;3.17;;;;;;;3.70;77.49;96761.38;4919407;29;20063;-78
2022/01/06 08:59:33;;;;;;;6.53;3.28;;;;;;;3.70;77.91;96756.22;4923505;29;20059;-77
2022/01/06 09:02:00;;;;;;;5.85;3.47;;;;;;;3.68;77.27;96767.63;4920260;29;20056;-76
2022/01/06 09:04:28;;;;;;;6.68;3.83;;;;;;;3.71;77.46;96763.00;4921230;29;20056;-77
2022/01/06 09:06:56;;;;;;;5.50;3.25;;;;;;;3.73;77.94;96762.88;4921979;29;20438;-80
2022/01/06 09:09:25;;;;;;;7.28;3.55;;;;;;;3.78;77.80;96765.06;4922009;29;20052;-80
2022/01/06 09:11:55;;;;;;;6.43;3.28;;;;;;;3.80;77.43;96765.75;4919660;29;20060;-77
2022/01/06 09:14:23;;;;;;;9.93;4.50;;;;;;;3.84;77.99;96774.84;4918879;29;20055;-77
2022/01/06 09:16:53;;;;;;;6.53;4.18;;;;;;;3.87;77.89;96771.97;4918973;29;20063;-78
2022/01/06 09:19:21;;;;;;;7.50;3.88;;;;;;;3.85;77.58;96774.72;4918579;29;20055;-80
2022/01/06 09:21:49;;;;;;;8.50;4.13;;;;;;;3.85;77.09;96774.72;4918196;29;20051;-79
2022/01/06 09:24:18;;;;;;;5.22;4.40;;;;;;;3.86;76.49;96771.16;4919284;29;20431;-80
2022/01/06 09:26:46;;;;;;;8.35;3.88;;;;;;;3.85;76.23;96781.66;4918969;29;20052;-81
2022/01/06 09:29:14;;;;;;;7.10;4.22;;;;;;;3.86;76.34;96776.34;4921626;29;20043;-78
2022/01/06 09:31:42;;;;;;;12.75;5.65;;;;;;;3.88;76.98;96779.59;4935903;29;20051;-77
2022/01/06 09:34:10;;;;;;;62.78;32.05;;;;;;;3.93;76.88;96781.75;4936080;29;20047;-78
2022/01/06 09:36:40;;;;;;;13.02;7.93;;;;;;;3.95;76.70;96785.03;4935933;29;20074;-79
2022/01/06 09:39:10;;;;;;;8.77;4.88;;;;;;;3.95;76.59;96790.19;4936711;29;20059;-78
2022/01/06 09:41:38;;;;;;;9.70;5.80;;;;;;;3.99;76.99;96788.97;4936168;29;20051;-79
2022/01/06 09:44:07;;;;;;;11.60;5.55;;;;;;;4.00;76.78;96794.94;4936328;29;20074;-78
2022/01/06 09:46:55;;;;;;;8.40;5.03;;;;;;;3.98;77.14;96802.00;4936389;29;20091;-82
2022/01/06 09:49:23;;;;;;;11.18;5.85;;;;;;;4.00;77.68;96800.09;4941440;29;20055;-83
2022/01/06 09:51:52;;;;;;;7.10;4.72;;;;;;;4.02;76.71;96813.69;4939432;29;20510;-78
2022/01/06 09:54:20;;;;;;;13.73;5.97;;;;;;;3.99;77.48;96804.47;4939906;29;20048;-80
2022/01/06 09:56:47;;;;;;;9.18;6.20;;;;;;;3.99;77.40;96795.91;4940827;29;20058;-83
2022/01/06 09:59:16;;;;;;;9.88;5.30;;;;;;;4.02;77.75;96793.84;4943075;29;20066;-88
2022/01/06 10:01:44;;;;;;;9.90;4.68;;;;;;;4.01;76.56;96799.97;4942322;29;20062;-86
2022/01/06 10:04:19;;;;;;;7.28;4.95;;;;;;;3.98;76.44;96813.16;4942747;29;20526;-84
2022/01/06 10:06:58;;;;;;;8.77;5.05;;;;;;;3.98;76.31;96808.00;4942528;29;20052;-90
2022/01/06 10:09:26;;;;;;;7.93;4.85;;;;;;;4.05;76.83;96806.50;4941557;29;20058;-88
2022/01/06 10:11:57;;;;;;;8.20;5.53;;;;;;;4.12;77.71;96810.16;4942924;29;20112;-86
2022/01/06 10:14:40;;;;;;;9.57;5.40;;;;;;;4.18;75.76;96800.25;4944512;29;20062;-88
2022/01/06 10:17:08;;;;;;;11.30;6.35;;;;;;;4.20;76.70;96798.31;4944118;29;20055;-89
2022/01/06 10:19:40;;;;;;;41.88;22.00;;;;;;;4.20;76.86;96804.34;4941089;29;20052;-91
2022/01/06 10:22:13;;;;;;;19.38;9.05;;;;;;;4.23;76.84;96808.41;4943346;29;20056;-90
2022/01/06 10:24:44;;;;;;;14.88;6.25;;;;;;;4.23;77.03;96810.97;4940967;29;20063;-90
2022/01/06 10:27:14;;;;;;;11.05;5.88;;;;;;;4.22;77.57;96812.75;4941734;29;20059;-82
2022/01/06 10:29:55;;;;;;;10.35;5.47;;;;;;;4.19;78.59;96797.53;4941538;29;20051;-84
2022/01/06 10:32:27;;;;;;;12.65;5.75;;;;;;;4.20;77.00;96804.34;4942019;29;20052;-86
2022/01/06 10:35:02;;;;;;;15.25;6.07;;;;;;;4.20;77.05;96804.34;4950879;29;20079;-92
2022/01/06 10:37:35;;;;;;;7.78;5.15;;;;;;;4.24;77.19;96800.53;4957541;28;20036;-88
2022/01/06 10:40:05;;;;;;;8.23;5.60;;;;;;;4.30;77.06;96807.69;4955949;28;20066;-82
2022/01/06 10:42:36;;;;;;;11.50;6.32;;;;;;;4.33;77.67;96804.06;4947478;29;20066;-80
2022/01/06 10:45:14;;;;;;;10.70;5.60;;;;;;;4.35;77.36;96807.28;4944342;29;20107;-85
2022/01/06 10:47:44;;;;;;;15.57;5.68;;;;;;;4.34;77.45;96805.66;4942703;29;20056;-88
2022/01/06 10:50:18;;;;;;;11.13;5.85;;;;;;;4.37;77.38;96818.28;4941826;29;20478;-82
2022/01/06 10:52:49;;;;;;;10.38;4.95;;;;;;;4.36;76.70;96806.34;4940603;29;20048;-81
2022/01/06 10:55:20;;;;;;;13.38;5.78;;;;;;;4.34;76.75;96821.16;4942018;29;20059;-89
2022/01/06 10:57:58;;;;;;;11.13;5.00;;;;;;;4.33;77.20;96811.81;4943113;29;20058;-80
2022/01/06 11:00:28;;;;;;;11.80;5.20;;;;;;;4.30;76.94;96822.38;4941149;29;20074;-77
2022/01/06 11:03:07;;;;;;;13.20;5.10;;;;;;;4.26;77.27;96821.03;4939641;29;20083;-79
2022/01/06 11:05:35;;;;;;;51.53;26.58;;;;;;;4.23;76.40;96814.38;4940599;29;20069;-79
2022/01/06 11:08:04;;;;;;;37.40;20.40;;;;;;;4.20;76.59;96826.72;4940882;29;20059;-80
2022/01/06 11:10:32;;;;;;;10.05;5.15;;;;;;;4.21;77.21;96826.59;4939218;29;20145;-78
2022/01/06 11:12:59;;;;;;;10.82;4.85;;;;;;;4.21;77.02;96824.03;4939030;29;20066;-76
2022/01/06 11:15:28;;;;;;;10.13;4.47;;;;;;;4.19;77.05;96825.91;4938591;29;20417;-76
2022/01/06 11:17:56;;;;;;;6.93;4.72;;;;;;;4.17;76.89;96834.75;4938282;29;20052;-77
2022/01/06 11:20:25;;;;;;;9.35;3.92;;;;;;;4.16;76.76;96835.72;4930434;29;20044;-77
2022/01/06 11:22:54;;;;;;;8.55;3.97;;;;;;;4.15;76.56;96836.66;4935384;29;20047;-76
2022/01/06 11:25:34;;;;;;;9.75;3.97;;;;;;;4.20;77.65;96837.91;4938260;29;20058;-78
2022/01/06 11:28:03;;;;;;;9.90;4.05;;;;;;;4.25;77.28;96837.50;4940700;29;20510;-80
2022/01/06 11:30:44;;;;;;;8.82;4.50;;;;;;;4.30;78.47;96838.69;4939273;29;20502;-77
2022/01/06 11:33:12;;;;;;;10.27;4.63;;;;;;;4.36;77.08;96839.13;4940964;29;20186;-80
2022/01/06 11:35:52;;;;;;;26.52;5.93;;;;;;;4.36;74.59;96845.09;4942374;29;20048;-77
2022/01/06 11:38:23;;;;;;;26.65;8.15;;;;;;;4.34;75.95;96839.25;4940469;29;20095;-78
2022/01/06 11:40:52;;;;;;;60.75;17.75;;;;;;;4.36;76.82;96834.75;4939379;29;20083;-77
2022/01/06 11:43:20;;;;;;;40.03;12.45;;;;;;;4.38;76.93;96847.53;4944087;29;20070;-79
2022/01/06 11:46:00;;;;;;;47.45;23.63;;;;;;;4.33;76.79;96856.50;4941563;29;20601;-78
2022/01/06 11:48:28;;;;;;;8.50;4.50;;;;;;;4.27;76.27;96858.81;4940203;29;20058;-81
2022/01/06 11:50:58;;;;;;;7.78;4.28;;;;;;;4.19;76.42;96859.50;4942542;29;20415;-79
2022/01/06 11:53:34;;;;;;;8.27;3.15;;;;;;;4.06;76.92;96854.59;4944801;29;20058;-87